Lorenzo, Idaho
Current Conditions -  °F | °C
As of 8:53 AM on Saturday 20 Dec 2014 (Local Time) from KRXE Reporting Station
Overcast Overcast  
Wind Chill: -4°   Ceiling: 800
Heat Index:   Visibility: 10mi
Dew Point:   Wind: 10mph
Humidity: 96%   Direction: 230°SW
Pressure: 30.04"   Gusts: NA
Location:  43.6749°N, 111.89°W
Report Text: KRXE 201553Z AUTO 23009KT 10SM OVC008 01/00 A3004 RMK AO2 SLP192 T00060000
Loading
Personal Weather Stations






























Interactive Weather Map New forecast layout! Learn more

10-Day Weather Forecast

Advertisements
Track Severe Weather on mobile